createdAt,value
2023-05-22T00:01:04.858Z,21.30
2023-05-22T00:03:33.243Z,21.30
2023-05-22T00:06:02.681Z,21.30
2023-05-22T00:08:31.062Z,21.20
2023-05-22T00:10:59.222Z,21.20
2023-05-22T00:13:27.240Z,21.20
2023-05-22T00:15:55.315Z,21.20
2023-05-22T00:18:23.372Z,21.20
2023-05-22T00:20:51.868Z,21.10
2023-05-22T00:23:21.906Z,21.10
2023-05-22T00:25:50.760Z,21.20
2023-05-22T00:28:18.835Z,21.20
2023-05-22T00:30:47.099Z,21.10
2023-05-22T00:33:15.172Z,21.10
2023-05-22T00:35:43.230Z,21.10
2023-05-22T00:38:27.832Z,21.10
2023-05-22T00:40:57.369Z,21.10
2023-05-22T00:43:25.724Z,21.10
2023-05-22T00:45:54.121Z,21.00
2023-05-22T00:48:22.222Z,21.00
2023-05-22T00:50:51.203Z,21.00
2023-05-22T00:53:22.034Z,21.00
2023-05-22T00:55:50.494Z,21.00
2023-05-22T00:58:21.685Z,21.00
2023-05-22T01:00:49.979Z,21.00
2023-05-22T01:03:19.467Z,21.00
2023-05-22T01:05:47.667Z,20.90
2023-05-22T01:08:15.747Z,20.90
2023-05-22T01:10:43.809Z,20.90
2023-05-22T01:13:21.292Z,20.90
2023-05-22T01:15:58.215Z,20.90
2023-05-22T01:18:32.969Z,20.80
2023-05-22T01:21:10.258Z,20.80
2023-05-22T01:24:16.148Z,20.80
2023-05-22T01:27:08.967Z,20.70
2023-05-22T01:29:47.344Z,20.60
2023-05-22T01:32:21.381Z,20.60
2023-05-22T01:34:55.272Z,20.50
2023-05-22T01:37:24.304Z,20.50
2023-05-22T01:39:54.447Z,20.50
2023-05-22T01:42:23.025Z,20.40
2023-05-22T01:44:51.174Z,20.40
2023-05-22T01:47:20.908Z,20.40
2023-05-22T01:49:49.139Z,20.40
2023-05-22T01:52:23.801Z,20.40
2023-05-22T01:54:58.311Z,20.50
2023-05-22T01:57:31.889Z,20.50
2023-05-22T02:00:07.323Z,20.50
2023-05-22T02:02:49.539Z,20.50
2023-05-22T02:05:21.864Z,20.50
2023-05-22T02:07:51.190Z,20.50
2023-05-22T02:10:21.117Z,20.50
2023-05-22T02:12:49.873Z,20.40
2023-05-22T02:15:18.152Z,20.40
2023-05-22T02:17:53.321Z,20.40
2023-05-22T02:20:21.736Z,20.40
2023-05-22T02:22:49.876Z,20.40
2023-05-22T02:25:18.067Z,20.40
2023-05-22T02:27:49.511Z,20.40
2023-05-22T02:30:17.797Z,20.30
2023-05-22T02:32:51.663Z,20.30
2023-05-22T02:35:19.989Z,20.30
2023-05-22T02:37:47.994Z,20.20
2023-05-22T02:40:16.116Z,20.20
2023-05-22T02:42:44.142Z,20.10
2023-05-22T02:45:14.187Z,20.10
2023-05-22T02:47:43.637Z,20.10
2023-05-22T02:50:14.735Z,20.10
2023-05-22T02:52:45.281Z,20.00
2023-05-22T02:55:13.355Z,20.00
2023-05-22T02:57:41.499Z,20.00
2023-05-22T03:00:11.710Z,19.90
2023-05-22T03:02:39.965Z,19.90
2023-05-22T03:05:08.633Z,19.90
2023-05-22T03:07:38.064Z,19.90
2023-05-22T03:10:07.344Z,19.90
2023-05-22T03:12:35.555Z,19.90
2023-05-22T03:15:03.617Z,19.90
2023-05-22T03:17:34.975Z,19.90
2023-05-22T03:20:03.825Z,19.90
2023-05-22T03:22:31.957Z,19.90
2023-05-22T03:25:01.634Z,19.90
2023-05-22T03:27:30.004Z,19.90
2023-05-22T03:29:58.188Z,19.80
2023-05-22T03:32:26.427Z,19.80
2023-05-22T03:34:55.168Z,19.70
2023-05-22T03:37:23.383Z,19.70
2023-05-22T03:39:51.434Z,19.60
2023-05-22T03:42:28.179Z,19.60
2023-05-22T03:44:57.470Z,19.60
2023-05-22T03:47:26.955Z,19.60
2023-05-22T03:49:54.975Z,19.70
2023-05-22T03:52:23.942Z,19.70
2023-05-22T03:54:53.497Z,19.70
2023-05-22T03:57:21.708Z,19.70
2023-05-22T03:59:51.348Z,19.60
2023-05-22T04:02:19.454Z,19.60
2023-05-22T04:04:47.519Z,19.60
2023-05-22T04:07:18.306Z,19.50
2023-05-22T04:09:46.481Z,19.50
2023-05-22T04:12:14.564Z,19.50
2023-05-22T04:14:43.932Z,19.50
2023-05-22T04:17:13.293Z,19.50
2023-05-22T04:19:41.422Z,19.60
2023-05-22T04:22:09.454Z,19.60
2023-05-22T04:24:39.714Z,19.60
2023-05-22T04:27:07.896Z,19.60
2023-05-22T04:29:36.386Z,19.60
2023-05-22T04:32:06.223Z,19.60
2023-05-22T04:34:37.760Z,19.60
2023-05-22T04:37:06.240Z,19.60
2023-05-22T04:39:34.363Z,19.60
2023-05-22T04:42:05.808Z,19.70
2023-05-22T04:44:34.597Z,19.70
2023-05-22T04:47:03.964Z,19.70
2023-05-22T04:49:33.710Z,19.70
2023-05-22T04:52:04.763Z,19.70
2023-05-22T04:54:32.890Z,19.70
2023-05-22T04:57:00.969Z,19.70
2023-05-22T04:59:29.089Z,19.70
2023-05-22T05:01:57.306Z,19.70
2023-05-22T05:04:26.071Z,19.70
2023-05-22T05:06:55.089Z,19.80
2023-05-22T05:09:24.844Z,19.80
2023-05-22T05:11:53.752Z,19.80
2023-05-22T05:14:21.830Z,19.80
2023-05-22T05:16:51.678Z,19.90
2023-05-22T05:19:21.483Z,19.90
2023-05-22T05:21:49.755Z,19.90
2023-05-22T05:24:18.429Z,19.90
2023-05-22T05:26:48.459Z,19.90
2023-05-22T05:29:18.606Z,20.00
2023-05-22T05:31:53.934Z,20.00
2023-05-22T05:34:40.533Z,20.00
2023-05-22T05:37:21.174Z,20.10
2023-05-22T05:39:49.976Z,20.10
2023-05-22T05:42:19.568Z,20.10
2023-05-22T05:44:49.265Z,20.10
2023-05-22T05:47:18.257Z,20.00
2023-05-22T05:49:46.586Z,19.90
2023-05-22T05:52:16.490Z,19.90
2023-05-22T05:54:47.469Z,19.90
2023-05-22T05:57:19.489Z,19.90
2023-05-22T05:59:47.696Z,19.90
2023-05-22T06:02:34.382Z,19.90
2023-05-22T06:05:05.053Z,19.70
2023-05-22T06:07:38.044Z,19.70
2023-05-22T06:10:08.343Z,19.70
2023-05-22T06:12:47.294Z,19.80
2023-05-22T06:15:16.436Z,19.80
2023-05-22T06:17:44.484Z,19.90
2023-05-22T06:20:14.241Z,20.00
2023-05-22T06:22:43.247Z,20.00
2023-05-22T06:25:11.510Z,20.00
2023-05-22T06:27:39.555Z,20.00
2023-05-22T06:30:10.386Z,20.00
2023-05-22T06:32:40.738Z,20.00
2023-05-22T06:35:10.753Z,20.00
2023-05-22T06:37:42.206Z,20.00
2023-05-22T06:40:11.674Z,20.00
2023-05-22T06:42:50.213Z,20.00
2023-05-22T06:45:34.476Z,20.00
2023-05-22T06:48:20.866Z,20.00
2023-05-22T06:51:00.429Z,20.10
2023-05-22T06:53:28.530Z,20.20
2023-05-22T06:55:57.072Z,20.30
2023-05-22T06:58:38.661Z,20.40
2023-05-22T07:01:08.972Z,20.50
2023-05-22T07:03:42.497Z,20.50
2023-05-22T07:06:39.155Z,20.50
2023-05-22T07:09:08.397Z,20.50
2023-05-22T07:11:36.613Z,20.50
2023-05-22T07:14:05.005Z,20.50
2023-05-22T07:16:34.408Z,20.30
2023-05-22T07:19:03.455Z,20.40
2023-05-22T07:21:31.989Z,20.40
2023-05-22T07:24:00.226Z,20.40
2023-05-22T07:26:29.893Z,20.40
2023-05-22T07:29:05.833Z,20.40
2023-05-22T07:31:35.479Z,20.40
2023-05-22T07:34:03.718Z,20.50
2023-05-22T07:36:31.912Z,20.50
2023-05-22T07:38:59.969Z,20.60
2023-05-22T07:41:28.353Z,20.60
2023-05-22T07:43:56.710Z,20.60
2023-05-22T07:46:29.469Z,20.60
2023-05-22T07:49:10.901Z,20.70
2023-05-22T07:51:41.981Z,20.60
2023-05-22T07:54:11.012Z,20.50
2023-05-22T07:56:42.473Z,20.50
2023-05-22T07:59:12.127Z,20.40
2023-05-22T08:01:41.767Z,20.40
2023-05-22T08:04:11.424Z,20.50
2023-05-22T08:06:39.990Z,20.60
2023-05-22T08:09:08.106Z,20.70
2023-05-22T08:11:39.051Z,20.70
2023-05-22T08:14:07.920Z,20.50
2023-05-22T08:16:36.044Z,20.40
2023-05-22T08:19:04.836Z,20.40
2023-05-22T08:21:34.611Z,20.40
2023-05-22T08:24:03.049Z,20.50
2023-05-22T08:26:33.193Z,20.60
2023-05-22T08:29:01.690Z,20.70
2023-05-22T08:31:30.080Z,20.70
2023-05-22T08:34:02.145Z,20.50
2023-05-22T08:36:33.829Z,20.20
2023-05-22T08:39:03.667Z,20.10
2023-05-22T08:41:31.746Z,20.10
2023-05-22T08:43:59.877Z,20.20
2023-05-22T08:46:29.201Z,20.00
2023-05-22T08:48:58.821Z,20.00
2023-05-22T08:51:31.328Z,20.20
2023-05-22T08:54:00.510Z,20.10
2023-05-22T08:56:32.169Z,20.10
2023-05-22T08:59:02.093Z,20.20
2023-05-22T09:01:30.461Z,20.40
2023-05-22T09:04:01.782Z,20.20
2023-05-22T09:06:30.258Z,20.20
2023-05-22T09:08:58.704Z,20.40
2023-05-22T09:11:27.147Z,20.30
2023-05-22T09:14:07.995Z,20.20
2023-05-22T09:16:46.106Z,20.10
2023-05-22T09:19:14.809Z,20.30
2023-05-22T09:21:44.458Z,20.30
2023-05-22T09:24:13.160Z,20.10
2023-05-22T09:26:41.453Z,19.90
2023-05-22T09:29:11.112Z,19.80
2023-05-22T09:31:43.806Z,19.80
2023-05-22T09:34:14.259Z,19.80
2023-05-22T09:36:42.703Z,19.90
2023-05-22T09:39:10.946Z,20.00
2023-05-22T09:41:40.882Z,20.10
2023-05-22T09:44:15.456Z,20.10
2023-05-22T09:46:45.346Z,20.20
2023-05-22T09:49:16.384Z,20.30
2023-05-22T09:51:48.589Z,20.30
2023-05-22T09:54:18.035Z,20.20
2023-05-22T09:56:50.157Z,20.10
2023-05-22T09:59:23.503Z,20.00
2023-05-22T10:01:52.032Z,19.80
2023-05-22T10:04:22.828Z,19.90
2023-05-22T10:06:53.870Z,20.00
2023-05-22T10:09:24.818Z,20.10
2023-05-22T10:11:57.562Z,20.30
2023-05-22T10:14:29.024Z,20.30
2023-05-22T10:17:02.067Z,20.20
2023-05-22T10:19:32.909Z,20.20
2023-05-22T10:22:02.426Z,20.10
2023-05-22T10:24:30.884Z,20.10
2023-05-22T10:27:00.241Z,20.20
2023-05-22T10:29:39.261Z,20.40
2023-05-22T10:32:15.910Z,20.70
2023-05-22T10:34:58.485Z,20.60
2023-05-22T10:37:48.219Z,20.40
2023-05-22T10:40:22.647Z,20.60
2023-05-22T10:42:50.881Z,20.70
2023-05-22T10:45:20.433Z,20.80
2023-05-22T10:47:48.564Z,20.90
2023-05-22T10:50:19.098Z,20.90
2023-05-22T10:52:48.551Z,20.90
2023-05-22T10:55:16.625Z,20.80
2023-05-22T10:57:44.717Z,20.90
2023-05-22T11:00:16.204Z,21.10
2023-05-22T11:02:49.902Z,21.10
2023-05-22T11:05:36.400Z,21.20
2023-05-22T11:08:11.472Z,21.40
2023-05-22T11:10:56.021Z,21.50
2023-05-22T11:13:29.021Z,21.60
2023-05-22T11:15:57.840Z,21.50
2023-05-22T11:18:30.009Z,21.40
2023-05-22T11:21:00.287Z,21.40
2023-05-22T11:23:28.489Z,21.20
2023-05-22T11:25:56.582Z,21.20
2023-05-22T11:28:25.513Z,21.20
2023-05-22T11:30:54.913Z,21.20
2023-05-22T11:33:24.530Z,21.10
2023-05-22T11:35:54.949Z,21.20
2023-05-22T11:38:23.226Z,21.20
2023-05-22T11:40:53.175Z,21.30
2023-05-22T11:43:31.443Z,21.40
2023-05-22T11:46:02.686Z,21.60
2023-05-22T11:48:30.821Z,21.70
2023-05-22T11:51:00.581Z,21.70
2023-05-22T11:53:28.669Z,21.90
2023-05-22T11:55:56.669Z,22.00
2023-05-22T11:58:28.725Z,21.90
2023-05-22T12:01:00.410Z,21.60
2023-05-22T12:03:28.530Z,21.50
2023-05-22T12:05:57.420Z,21.40
2023-05-22T12:08:27.400Z,21.50
2023-05-22T12:10:55.813Z,21.60
2023-05-22T12:13:27.928Z,21.70
2023-05-22T12:16:00.198Z,21.80
2023-05-22T12:18:28.470Z,21.90
2023-05-22T12:20:56.997Z,21.60
2023-05-22T12:23:27.531Z,21.50
2023-05-22T12:26:03.468Z,21.60
2023-05-22T12:28:33.552Z,21.70
2023-05-22T12:31:01.722Z,21.70
2023-05-22T12:33:30.331Z,21.70
2023-05-22T12:35:59.347Z,21.70
2023-05-22T12:38:30.769Z,21.60
2023-05-22T12:41:00.183Z,21.50
2023-05-22T12:43:28.153Z,21.60
2023-05-22T12:45:56.182Z,21.50
2023-05-22T12:48:24.248Z,21.50
2023-05-22T12:50:52.337Z,21.60
2023-05-22T12:53:20.752Z,21.90
2023-05-22T12:55:50.179Z,21.90
2023-05-22T12:58:18.244Z,21.80
2023-05-22T13:00:46.308Z,22.10
2023-05-22T13:03:14.457Z,22.20
2023-05-22T13:05:42.826Z,22.10
2023-05-22T13:08:11.112Z,22.10
2023-05-22T13:10:39.138Z,22.00
2023-05-22T13:13:08.673Z,22.10
2023-05-22T13:15:36.650Z,22.10
2023-05-22T13:18:04.840Z,22.20
2023-05-22T13:20:32.980Z,22.50
2023-05-22T13:23:01.062Z,22.50
2023-05-22T13:25:29.297Z,22.40
2023-05-22T13:27:57.345Z,22.60
2023-05-22T13:30:27.052Z,22.80
2023-05-22T13:32:55.466Z,22.60
2023-05-22T13:35:23.646Z,22.60
2023-05-22T13:37:51.770Z,22.50
2023-05-22T13:40:20.173Z,22.70
2023-05-22T13:42:48.236Z,22.80
2023-05-22T13:45:16.290Z,22.80
2023-05-22T13:47:46.132Z,23.00
2023-05-22T13:50:14.299Z,23.10
2023-05-22T13:52:42.325Z,23.40
2023-05-22T13:55:10.899Z,23.40
2023-05-22T13:57:40.440Z,23.60
2023-05-22T14:00:10.049Z,23.50
2023-05-22T14:02:38.520Z,23.50
2023-05-22T14:05:09.334Z,23.70
2023-05-22T14:07:37.500Z,24.10
2023-05-22T14:10:06.732Z,24.50
2023-05-22T14:12:34.980Z,24.40
2023-05-22T14:15:03.161Z,24.10
2023-05-22T14:17:31.263Z,24.00
2023-05-22T14:19:59.838Z,23.80
2023-05-22T14:22:29.202Z,24.00
2023-05-22T14:24:57.320Z,24.20
2023-05-22T14:27:25.373Z,24.30
2023-05-22T14:29:53.453Z,24.40
2023-05-22T14:32:21.561Z,24.50
2023-05-22T14:34:49.571Z,24.70
2023-05-22T14:37:18.948Z,24.90
2023-05-22T14:39:48.554Z,25.00
2023-05-22T14:42:16.681Z,25.40
2023-05-22T14:44:44.817Z,25.50
2023-05-22T14:47:13.194Z,25.90
2023-05-22T14:49:41.273Z,26.60
2023-05-22T14:52:09.386Z,26.90
2023-05-22T14:54:37.403Z,27.70
2023-05-22T14:57:07.218Z,28.10
2023-05-22T14:59:35.267Z,27.60
2023-05-22T15:02:03.444Z,27.20
2023-05-22T15:04:31.753Z,27.20
2023-05-22T15:06:59.797Z,27.30
2023-05-22T15:09:27.850Z,27.70
2023-05-22T15:11:55.935Z,28.10
2023-05-22T15:14:25.477Z,28.00
2023-05-22T15:16:53.901Z,27.90
2023-05-22T15:19:22.132Z,27.70
2023-05-22T15:21:50.610Z,28.00
2023-05-22T15:24:18.709Z,28.10
2023-05-22T15:26:46.925Z,28.50
2023-05-22T15:29:14.968Z,28.50
2023-05-22T15:31:44.637Z,28.10
2023-05-22T15:34:12.708Z,27.80
2023-05-22T15:36:41.087Z,28.40
2023-05-22T15:39:09.198Z,28.80
2023-05-22T15:41:37.607Z,28.70
2023-05-22T15:44:05.868Z,28.50
2023-05-22T15:46:33.967Z,28.20
2023-05-22T15:49:03.377Z,27.90
2023-05-22T15:51:32.670Z,27.70
2023-05-22T15:54:00.737Z,27.80
2023-05-22T15:56:28.798Z,27.80
2023-05-22T15:58:56.815Z,28.10
2023-05-22T16:01:24.916Z,28.30
2023-05-22T16:03:53.019Z,28.10
2023-05-22T16:06:23.316Z,27.90
2023-05-22T16:08:51.371Z,27.70
2023-05-22T16:11:19.529Z,28.00
2023-05-22T16:13:47.826Z,28.40
2023-05-22T16:16:17.388Z,28.10
2023-05-22T16:18:45.472Z,27.80
2023-05-22T16:21:13.484Z,27.50
2023-05-22T16:23:42.900Z,26.70
2023-05-22T16:26:10.945Z,26.20
2023-05-22T16:28:39.054Z,26.10
2023-05-22T16:31:07.248Z,25.90
2023-05-22T16:33:37.522Z,25.50
2023-05-22T16:36:06.246Z,25.20
2023-05-22T16:38:34.367Z,25.40
2023-05-22T16:41:03.853Z,25.40
2023-05-22T16:43:31.960Z,25.40
2023-05-22T16:46:00.204Z,25.40
2023-05-22T16:48:28.423Z,25.40
2023-05-22T16:50:56.593Z,25.30
2023-05-22T16:53:24.729Z,25.10
2023-05-22T16:55:52.966Z,25.30
2023-05-22T16:58:22.386Z,25.40
2023-05-22T17:00:50.608Z,25.20
2023-05-22T17:03:18.783Z,25.10
2023-05-22T17:05:47.611Z,24.90
2023-05-22T17:08:15.810Z,25.00
2023-05-22T17:10:43.989Z,25.20
2023-05-22T17:13:19.554Z,25.30
2023-05-22T17:15:49.530Z,25.10
2023-05-22T17:18:20.923Z,24.90
2023-05-22T17:20:49.537Z,24.70
2023-05-22T17:23:18.386Z,24.60
2023-05-22T17:25:46.976Z,24.50
2023-05-22T17:28:15.636Z,24.60
2023-05-22T17:30:45.224Z,24.50
2023-05-22T17:33:14.957Z,24.30
2023-05-22T17:35:43.125Z,24.10
2023-05-22T17:38:11.229Z,24.20
2023-05-22T17:40:45.702Z,24.40
2023-05-22T17:43:14.994Z,24.60
2023-05-22T17:45:44.484Z,25.00
2023-05-22T17:48:15.842Z,25.20
2023-05-22T17:50:43.980Z,25.30
2023-05-22T17:53:13.467Z,25.50
2023-05-22T17:55:41.561Z,25.70
2023-05-22T17:58:09.781Z,25.90
2023-05-22T18:00:37.927Z,26.00
2023-05-22T18:03:07.658Z,25.90
2023-05-22T18:05:37.374Z,26.00
2023-05-22T18:08:05.952Z,25.70
2023-05-22T18:10:33.997Z,25.70
2023-05-22T18:13:02.212Z,25.30
2023-05-22T18:15:30.517Z,25.30
2023-05-22T18:17:58.620Z,25.40
2023-05-22T18:20:26.710Z,25.70
2023-05-22T18:22:56.164Z,25.80
2023-05-22T18:25:24.332Z,25.80
2023-05-22T18:27:52.529Z,25.60
2023-05-22T18:30:20.584Z,25.40
2023-05-22T18:32:48.761Z,25.40
2023-05-22T18:35:16.880Z,25.00
2023-05-22T18:37:45.071Z,24.70
2023-05-22T18:40:15.323Z,24.50
2023-05-22T18:42:43.956Z,24.40
2023-05-22T18:45:12.447Z,24.30
2023-05-22T18:47:40.584Z,24.10
2023-05-22T18:50:09.404Z,24.00
2023-05-22T18:52:40.049Z,23.80
2023-05-22T18:55:08.748Z,23.80
2023-05-22T18:57:38.131Z,23.70
2023-05-22T19:00:08.101Z,23.60
2023-05-22T19:02:36.399Z,23.60
2023-05-22T19:05:05.130Z,23.50
2023-05-22T19:07:33.274Z,23.30
2023-05-22T19:10:01.437Z,23.30
2023-05-22T19:12:31.678Z,23.30
2023-05-22T19:15:01.207Z,23.30
2023-05-22T19:17:29.366Z,23.30
2023-05-22T19:19:57.414Z,23.30
2023-05-22T19:22:25.600Z,23.30
2023-05-22T19:24:53.547Z,23.30
2023-05-22T19:27:21.675Z,23.30
2023-05-22T19:29:49.912Z,23.20
2023-05-22T19:32:19.253Z,23.20
2023-05-22T19:34:47.603Z,23.20
2023-05-22T19:37:15.731Z,23.10
2023-05-22T19:39:43.834Z,22.90
2023-05-22T19:42:12.270Z,22.80
2023-05-22T19:44:40.355Z,22.80
2023-05-22T19:47:08.845Z,22.70
2023-05-22T19:49:38.312Z,22.80
2023-05-22T19:52:07.280Z,22.80
2023-05-22T19:54:35.627Z,22.80
2023-05-22T19:57:04.034Z,22.80
2023-05-22T19:59:33.225Z,22.80
2023-05-22T20:02:02.308Z,22.80
2023-05-22T20:04:31.533Z,22.80
2023-05-22T20:07:02.357Z,22.70
2023-05-22T20:09:30.532Z,22.60
2023-05-22T20:11:58.722Z,22.50
2023-05-22T20:14:26.854Z,22.40
2023-05-22T20:16:55.287Z,22.30
2023-05-22T20:19:25.506Z,22.00
2023-05-22T20:21:53.688Z,21.90
2023-05-22T20:24:25.113Z,21.70
2023-05-22T20:26:53.841Z,21.50
2023-05-22T20:29:21.856Z,21.30
2023-05-22T20:31:51.165Z,21.10
2023-05-22T20:34:20.558Z,21.20
2023-05-22T20:36:48.615Z,21.20
2023-05-22T20:39:18.089Z,21.20
2023-05-22T20:41:49.648Z,21.20
2023-05-22T20:44:19.172Z,21.30
2023-05-22T20:46:47.215Z,21.30
2023-05-22T20:49:16.130Z,21.30
2023-05-22T20:51:44.433Z,21.20
2023-05-22T20:54:12.467Z,21.10
2023-05-22T20:56:40.624Z,21.00
2023-05-22T20:59:10.123Z,20.90
2023-05-22T21:01:38.368Z,20.90
2023-05-22T21:04:06.532Z,20.90
2023-05-22T21:06:34.738Z,21.00
2023-05-22T21:09:02.889Z,20.80
2023-05-22T21:11:30.929Z,20.60
2023-05-22T21:13:58.962Z,20.60
2023-05-22T21:16:28.422Z,20.50
2023-05-22T21:18:56.571Z,20.60
2023-05-22T21:21:24.656Z,20.60
2023-05-22T21:23:52.921Z,20.60
2023-05-22T21:26:22.350Z,20.60
2023-05-22T21:28:50.694Z,20.50
2023-05-22T21:31:18.941Z,20.40
2023-05-22T21:33:48.373Z,20.30
2023-05-22T21:36:16.694Z,20.20
2023-05-22T21:38:44.863Z,20.30
2023-05-22T21:41:13.033Z,20.30
2023-05-22T21:43:41.177Z,20.20
2023-05-22T21:46:09.353Z,20.20
2023-05-22T21:48:37.450Z,20.20
2023-05-22T21:51:07.225Z,20.20
2023-05-22T21:53:35.240Z,20.20
2023-05-22T21:56:03.266Z,20.10
2023-05-22T21:58:31.356Z,20.00
2023-05-22T22:00:59.376Z,20.00
2023-05-22T22:03:27.511Z,20.00
2023-05-22T22:05:55.641Z,20.00
2023-05-22T22:08:27.106Z,20.00
2023-05-22T22:10:55.306Z,20.00
2023-05-22T22:13:23.434Z,20.00
2023-05-22T22:15:51.710Z,20.00
2023-05-22T22:18:19.786Z,20.00
2023-05-22T22:20:50.174Z,19.90
2023-05-22T22:23:18.374Z,19.90
2023-05-22T22:25:48.011Z,19.80
2023-05-22T22:28:16.051Z,19.80
2023-05-22T22:30:44.170Z,19.60
2023-05-22T22:33:12.848Z,19.60
2023-05-22T22:35:42.167Z,19.70
2023-05-22T22:38:10.555Z,19.50
2023-05-22T22:40:38.655Z,19.50
2023-05-22T22:43:08.155Z,19.30
2023-05-22T22:45:36.219Z,19.20
2023-05-22T22:48:05.751Z,19.10
2023-05-22T22:50:33.945Z,19.00
2023-05-22T22:53:01.956Z,19.00
2023-05-22T22:55:30.283Z,19.10
2023-05-22T22:57:59.469Z,18.90
2023-05-22T23:00:29.212Z,18.80
2023-05-22T23:02:57.396Z,18.90
2023-05-22T23:05:25.587Z,18.90
2023-05-22T23:07:53.678Z,18.70
2023-05-22T23:10:22.378Z,18.70
2023-05-22T23:12:50.350Z,18.80
2023-05-22T23:15:18.534Z,18.90
2023-05-22T23:17:50.160Z,18.90
2023-05-22T23:20:19.738Z,18.80
2023-05-22T23:22:47.762Z,18.80
2023-05-22T23:25:15.737Z,18.60
2023-05-22T23:27:43.984Z,18.50
2023-05-22T23:30:12.973Z,18.20
2023-05-22T23:32:41.038Z,18.20
2023-05-22T23:35:11.213Z,18.20
2023-05-22T23:37:39.227Z,18.30
2023-05-22T23:40:08.800Z,18.30
2023-05-22T23:42:37.448Z,18.40
2023-05-22T23:45:06.189Z,18.40
2023-05-22T23:47:34.229Z,18.30
2023-05-22T23:50:02.353Z,18.10
2023-05-22T23:52:32.103Z,17.90
2023-05-22T23:55:00.730Z,17.80
2023-05-22T23:57:28.939Z,17.70
2023-05-22T23:59:56.945Z,17.50
